Time;durP1;ratioP1;P1;durP2;ratioP2;P2;SDS_P1;SDS_P2;PMS_P1;PMS_P2;Temp;Humidity;BMP_temperature;BMP_pressure;BME280_temperature;BME280_humidity;BME280_pressure;Samples;Min_cycle;Max_cycle;Signal;HPM_P1;HPM_P2
2022/06/29 00:00:22;;;;;;;36.15;34.58;;;;;;;24.96;46.71;101471.59;691341;28;23655;-68
2022/06/29 00:00:44;;;;;;;140.27;133.43;;;;;;;24.95;46.95;101473.53;690347;28;69162;-68
2022/06/29 00:01:06;;;;;;;347.57;328.67;;;;;;;24.87;46.65;101465.66;689402;28;67447;-68
2022/06/29 00:01:27;;;;;;;78.85;74.82;;;;;;;24.91;46.79;101469.59;690816;28;46191;-67
2022/06/29 00:01:48;;;;;;;18.33;17.60;;;;;;;24.91;46.66;101463.25;691469;28;21566;-67
2022/06/29 00:02:09;;;;;;;22.48;21.45;;;;;;;24.98;46.93;101469.41;692030;28;21504;-67
2022/06/29 00:02:31;;;;;;;27.67;26.50;;;;;;;24.98;46.64;101463.88;691624;28;21509;-67
2022/06/29 00:02:53;;;;;;;33.85;32.38;;;;;;;25.01;46.82;101466.13;690314;28;46323;-67
2022/06/29 00:03:14;;;;;;;42.80;40.88;;;;;;;25.05;46.25;101461.75;689864;28;45235;-67
2022/06/29 00:03:36;;;;;;;54.13;51.65;;;;;;;25.07;46.75;101465.09;691766;28;21577;-67
2022/06/29 00:03:58;;;;;;;72.95;69.57;;;;;;;25.08;46.48;101461.25;691133;28;44381;-67
2022/06/29 00:04:19;;;;;;;100.13;95.43;;;;;;;25.10;46.50;101467.34;691963;28;23412;-67
2022/06/29 00:04:40;;;;;;;104.77;99.87;;;;;;;25.11;46.33;101463.50;689201;28;47246;-67
2022/06/29 00:05:02;;;;;;;101.25;96.43;;;;;;;25.08;46.32;101464.00;690487;28;45274;-67
2022/06/29 00:05:26;;;;;;;122.35;116.53;;;;;;;25.00;46.26;101454.25;690075;28;46321;-67
2022/06/29 00:05:47;;;;;;;208.90;198.73;;;;;;;24.98;46.56;101458.34;688554;28;92145;-67
2022/06/29 00:06:09;;;;;;;292.30;278.05;;;;;;;24.95;46.91;101462.47;690826;28;21543;-67
2022/06/29 00:06:30;;;;;;;393.35;374.27;;;;;;;24.96;46.97;101461.34;691333;28;22354;-67
2022/06/29 00:06:52;;;;;;;440.00;418.42;;;;;;;24.93;46.66;101452.75;691462;28;22424;-67
2022/06/29 00:07:13;;;;;;;507.00;481.75;;;;;;;24.98;46.94;101459.19;690268;28;46332;-67
2022/06/29 00:07:34;;;;;;;546.28;518.65;;;;;;;24.96;46.41;101450.31;691129;28;21527;-67
2022/06/29 00:07:56;;;;;;;507.55;482.33;;;;;;;24.92;46.82;101457.47;690631;28;46342;-67
2022/06/29 00:08:18;;;;;;;503.42;478.25;;;;;;;24.93;47.14;101450.81;691537;28;24223;-67
2022/06/29 00:08:39;;;;;;;410.73;389.25;;;;;;;24.92;46.76;101448.31;690594;28;46267;-67
2022/06/29 00:09:00;;;;;;;103.55;98.60;;;;;;;24.91;46.97;101454.94;691501;28;22378;-67
2022/06/29 00:09:21;;;;;;;165.90;157.68;;;;;;;24.93;47.00;101450.81;691518;28;21293;-67
2022/06/29 00:09:42;;;;;;;168.25;159.82;;;;;;;24.93;47.03;101450.00;691354;28;24416;-67
2022/06/29 00:10:05;;;;;;;336.75;319.15;;;;;;;24.87;46.85;101442.72;693283;28;45454;-67
2022/06/29 00:10:27;;;;;;;377.63;357.27;;;;;;;24.87;46.91;101459.31;691574;28;92583;-67
2022/06/29 00:10:49;;;;;;;55.38;52.75;;;;;;;24.93;47.05;101455.53;693962;28;23449;-67
2022/06/29 00:11:12;;;;;;;60.63;57.75;;;;;;;24.97;46.75;101454.75;692794;28;46349;-67
2022/06/29 00:11:33;;;;;;;99.50;94.50;;;;;;;25.00;46.39;101459.78;690912;28;69513;-67
2022/06/29 00:11:54;;;;;;;177.55;168.73;;;;;;;25.02;46.51;101456.75;692892;28;44403;-67
2022/06/29 00:12:15;;;;;;;414.75;394.00;;;;;;;25.01;46.74;101455.06;693624;28;23240;-67
2022/06/29 00:12:36;;;;;;;363.92;345.70;;;;;;;25.02;46.46;101456.75;693048;28;24620;-67
2022/06/29 00:12:59;;;;;;;224.85;213.95;;;;;;;25.07;46.66;101455.97;694693;28;23490;-67
2022/06/29 00:13:21;;;;;;;312.90;297.70;;;;;;;25.05;46.50;101456.25;693108;28;44442;-66
2022/06/29 00:13:45;;;;;;;390.45;371.20;;;;;;;25.02;46.99;101453.97;693898;28;36383;-66
2022/06/29 00:14:06;;;;;;;450.10;427.70;;;;;;;25.00;46.74;101454.25;693220;28;46196;-67
2022/06/29 00:14:28;;;;;;;567.22;538.40;;;;;;;25.01;46.66;101455.06;693647;28;23417;-67
2022/06/29 00:14:50;;;;;;;663.22;628.78;;;;;;;24.99;47.01;101454.50;693438;28;22397;-66
2022/06/29 00:15:12;;;;;;;580.10;550.50;;;;;;;24.92;46.73;101454.69;693049;28;45012;-67
2022/06/29 00:15:33;;;;;;;314.00;298.38;;;;;;;24.94;47.11;101454.44;692922;28;46277;-67
2022/06/29 00:15:54;;;;;;;226.95;215.85;;;;;;;24.96;46.86;101457.78;693813;28;22432;-67
2022/06/29 00:16:19;;;;;;;250.07;237.95;;;;;;;24.99;46.96;101460.84;693348;28;45357;-66
2022/06/29 00:16:40;;;;;;;353.02;335.52;;;;;;;25.02;46.76;101451.22;691746;28;92241;-67
2022/06/29 00:17:01;;;;;;;417.27;396.40;;;;;;;24.99;46.62;101451.72;693726;28;23314;-68
2022/06/29 00:17:22;;;;;;;465.55;442.52;;;;;;;24.94;46.99;101460.78;693468;28;22426;-67
2022/06/29 00:17:45;;;;;;;518.78;492.73;;;;;;;24.97;47.26;101460.28;692897;28;46431;-67
2022/06/29 00:18:07;;;;;;;609.65;578.08;;;;;;;24.94;47.40;101455.25;692865;28;45238;-67
2022/06/29 00:18:28;;;;;;;595.92;565.45;;;;;;;24.91;47.10;101454.94;693500;28;45245;-68
2022/06/29 00:18:49;;;;;;;617.75;585.78;;;;;;;24.93;47.38;101450.00;693927;28;21606;-67
2022/06/29 00:19:11;;;;;;;532.22;505.40;;;;;;;24.97;47.00;101453.94;694054;28;22248;-68
2022/06/29 00:19:33;;;;;;;627.28;594.47;;;;;;;24.93;46.81;101452.75;691987;28;46321;-67
2022/06/29 00:19:54;;;;;;;674.85;639.15;;;;;;;24.90;47.35;101445.81;693407;28;22394;-67
2022/06/29 00:20:15;;;;;;;637.00;603.90;;;;;;;24.92;46.83;101454.69;693473;28;46329;-67
2022/06/29 00:20:38;;;;;;;677.33;642.20;;;;;;;24.90;47.16;101443.03;693924;28;22394;-66
2022/06/29 00:20:59;;;;;;;654.00;620.33;;;;;;;24.93;47.32;101442.53;693418;28;44397;-67
2022/06/29 00:21:20;;;;;;;667.28;632.83;;;;;;;24.91;47.09;101435.59;692918;28;47259;-68
2022/06/29 00:21:41;;;;;;;687.47;651.65;;;;;;;24.89;47.04;101443.31;694525;28;20903;-67
2022/06/29 00:22:03;;;;;;;672.75;637.60;;;;;;;24.91;47.42;101439.19;694139;28;22395;-67
2022/06/29 00:22:26;;;;;;;747.05;706.42;;;;;;;24.94;47.05;101437.84;694609;28;858;-67
2022/06/29 00:22:47;;;;;;;755.00;713.13;;;;;;;24.94;47.15;101433.16;692653;28;70372;-66
2022/06/29 00:23:10;;;;;;;748.35;707.28;;;;;;;24.91;47.02;101438.38;694379;28;22402;-67
2022/06/29 00:23:31;;;;;;;665.17;629.95;;;;;;;24.92;47.35;101429.81;693341;28;45117;-67
2022/06/29 00:23:53;;;;;;;482.25;458.20;;;;;;;24.92;46.88;101428.97;696344;28;43647;-68
2022/06/29 00:24:15;;;;;;;564.17;534.97;;;;;;;24.92;46.93;101423.44;695750;28;46238;-66
2022/06/29 00:24:36;;;;;;;683.40;646.13;;;;;;;24.95;47.09;101434.00;693325;28;43749;-66
2022/06/29 00:24:58;;;;;;;762.80;720.28;;;;;;;24.95;47.43;101434.00;691355;28;67182;-67
2022/06/29 00:25:20;;;;;;;777.55;734.00;;;;;;;24.96;47.12;101435.66;692799;28;22405;-67
2022/06/29 00:25:41;;;;;;;702.97;663.67;;;;;;;24.97;46.85;101429.06;692409;28;44375;-67
2022/06/29 00:26:04;;;;;;;440.40;417.52;;;;;;;24.90;47.50;101434.75;690797;28;22544;-67
2022/06/29 00:26:26;;;;;;;516.90;489.60;;;;;;;24.91;47.08;101439.19;690649;28;36537;-67
2022/06/29 00:26:50;;;;;;;462.27;438.48;;;;;;;24.96;47.00;101435.66;690306;28;46419;-67
2022/06/29 00:27:13;;;;;;;465.45;442.02;;;;;;;24.93;46.83;101419.59;687139;28;136482;-67
2022/06/29 00:27:38;;;;;;;435.63;412.30;;;;;;;24.99;46.93;101430.44;687804;28;14326;-67
2022/06/29 00:27:59;;;;;;;99.03;94.20;;;;;;;24.97;47.44;101427.13;685915;28;70263;-66
2022/06/29 00:28:21;;;;;;;422.30;400.23;;;;;;;24.98;46.72;101431.56;688375;28;23491;-66
2022/06/29 00:28:42;;;;;;;770.22;727.20;;;;;;;25.01;47.06;101430.19;689820;28;23462;-66
2022/06/29 00:29:04;;;;;;;807.83;761.95;;;;;;;25.02;47.10;101434.63;690184;28;45074;-66
2022/06/29 00:29:25;;;;;;;825.70;778.60;;;;;;;25.01;47.12;101432.97;691154;28;69504;-67
2022/06/29 00:29:47;;;;;;;827.78;780.50;;;;;;;25.00;47.42;101431.31;692362;28;23466;-66
2022/06/29 00:30:11;;;;;;;810.67;764.70;;;;;;;25.03;47.12;101425.25;690347;28;47117;-66
2022/06/29 00:30:32;;;;;;;823.88;776.95;;;;;;;25.04;46.80;101431.63;689829;28;69864;-66
2022/06/29 00:30:54;;;;;;;746.70;704.85;;;;;;;25.00;47.03;101423.84;690852;28;46363;-69
2022/06/29 00:31:15;;;;;;;822.85;775.97;;;;;;;25.00;46.98;101429.38;691005;28;21264;-66
2022/06/29 00:31:36;;;;;;;770.08;726.90;;;;;;;24.98;46.92;101419.66;692387;28;22378;-67
2022/06/29 00:31:58;;;;;;;593.33;562.00;;;;;;;24.97;47.16;101427.13;694117;28;23252;-66
2022/06/29 00:32:20;;;;;;;632.67;599.03;;;;;;;24.98;47.25;101422.41;693342;28;45095;-65
2022/06/29 00:32:41;;;;;;;734.63;694.28;;;;;;;24.99;47.10;101429.63;693746;28;44265;-65
2022/06/29 00:33:03;;;;;;;716.70;677.70;;;;;;;24.97;47.45;101432.66;692545;28;45262;-65
2022/06/29 00:33:25;;;;;;;738.25;697.70;;;;;;;24.98;46.87;101426.03;692932;28;44370;-65
2022/06/29 00:33:46;;;;;;;731.20;691.05;;;;;;;24.99;47.18;101419.41;693196;28;45246;-66
2022/06/29 00:34:07;;;;;;;755.92;713.80;;;;;;;25.00;46.72;101428.53;691194;28;22429;-66
2022/06/29 00:34:30;;;;;;;752.53;710.67;;;;;;;25.00;46.92;101425.78;691222;28;23217;-66
2022/06/29 00:34:52;;;;;;;714.55;675.72;;;;;;;24.95;46.67;101425.69;690784;28;19570;-66
2022/06/29 00:35:13;;;;;;;711.25;672.45;;;;;;;24.98;47.05;101422.41;690344;28;46344;-67
2022/06/29 00:35:35;;;;;;;670.75;634.75;;;;;;;24.98;46.75;101426.03;691308;28;21533;-66
2022/06/29 00:35:57;;;;;;;664.00;628.60;;;;;;;24.98;47.03;101422.41;690417;28;47622;-65
2022/06/29 00:36:18;;;;;;;723.08;683.72;;;;;;;24.92;47.22;101412.41;690423;28;44350;-65
2022/06/29 00:36:40;;;;;;;705.80;667.75;;;;;;;24.89;47.02;101424.81;690758;28;23503;-65
2022/06/29 00:37:01;;;;;;;701.22;663.42;;;;;;;24.85;47.13;101426.41;690504;28;21206;-65
2022/06/29 00:37:22;;;;;;;663.63;628.28;;;;;;;24.86;47.15;101422.56;690198;28;45218;-66
2022/06/29 00:37:44;;;;;;;652.55;618.30;;;;;;;24.82;47.17;101424.16;691063;28;22485;-66
2022/06/29 00:38:06;;;;;;;641.83;608.25;;;;;;;24.83;47.18;101426.66;690097;28;46306;-65
2022/06/29 00:38:27;;;;;;;569.15;539.95;;;;;;;24.80;46.94;101429.13;690959;28;24201;-66
2022/06/29 00:38:48;;;;;;;628.00;594.85;;;;;;;24.74;47.34;101430.97;690884;28;23304;-66
2022/06/29 00:39:09;;;;;;;598.80;567.38;;;;;;;24.73;47.43;101429.28;691180;28;22304;-66
2022/06/29 00:39:32;;;;;;;539.28;511.52;;;;;;;24.71;47.55;101423.19;690411;28;44190;-66
2022/06/29 00:39:53;;;;;;;493.63;468.40;;;;;;;24.75;47.36;101427.13;689580;28;47350;-66
2022/06/29 00:40:15;;;;;;;285.13;270.73;;;;;;;24.75;47.57;101431.78;690600;28;44371;-66
2022/06/29 00:40:37;;;;;;;367.90;349.40;;;;;;;24.77;47.50;101424.91;691075;28;22208;-66
2022/06/29 00:40:58;;;;;;;465.05;441.38;;;;;;;24.79;47.29;101424.66;690696;28;46521;-66
2022/06/29 00:41:21;;;;;;;265.65;252.35;;;;;;;24.76;47.03;101431.53;690489;28;23472;-67
2022/06/29 00:41:44;;;;;;;340.27;323.10;;;;;;;24.75;47.20;101431.78;689494;28;68992;-66
2022/06/29 00:42:06;;;;;;;489.20;464.00;;;;;;;24.76;47.08;101422.41;689952;28;69440;-66
2022/06/29 00:42:28;;;;;;;416.50;395.15;;;;;;;24.75;47.44;101429.03;691208;28;44510;-66
2022/06/29 00:42:49;;;;;;;218.65;207.68;;;;;;;24.76;47.38;101427.94;690287;28;44217;-66
2022/06/29 00:43:10;;;;;;;423.67;402.10;;;;;;;24.77;47.00;101422.16;690738;28;23545;-66
2022/06/29 00:43:39;;;;;;;535.92;508.88;;;;;;;24.77;47.31;101413.06;691238;28;19349;-67
2022/06/29 00:44:00;;;;;;;468.38;444.15;;;;;;;24.73;47.28;101418.22;687139;28;135954;-66
2022/06/29 00:44:22;;;;;;;379.63;360.92;;;;;;;24.69;47.24;101413.50;688034;28;22560;-65
2022/06/29 00:44:44;;;;;;;536.28;508.98;;;;;;;24.69;47.38;101413.50;686355;28;46417;-66
2022/06/29 00:45:06;;;;;;;628.42;595.80;;;;;;;24.71;47.53;101414.06;689554;28;22375;-66
2022/06/29 00:45:28;;;;;;;459.35;436.30;;;;;;;24.72;47.64;101408.28;688665;28;69563;-65
2022/06/29 00:45:50;;;;;;;440.25;418.25;;;;;;;24.75;47.61;101412.44;690163;28;44051;-66
2022/06/29 00:46:11;;;;;;;510.85;484.88;;;;;;;24.75;47.10;101404.16;690403;28;44471;-65
2022/06/29 00:46:33;;;;;;;564.13;535.10;;;;;;;24.75;47.02;101402.25;690828;28;23444;-66
2022/06/29 00:46:55;;;;;;;437.55;415.45;;;;;;;24.77;47.46;101405.59;690670;28;24164;-66
2022/06/29 00:47:17;;;;;;;408.55;387.98;;;;;;;24.77;47.60;101415.81;690510;28;46527;-65
2022/06/29 00:47:39;;;;;;;434.05;411.95;;;;;;;24.72;47.45;101408.28;690433;28;46314;-66
2022/06/29 00:48:00;;;;;;;522.22;495.08;;;;;;;24.76;47.07;101401.13;691466;28;46337;-66
2022/06/29 00:48:21;;;;;;;650.00;614.53;;;;;;;24.79;46.82;101410.84;690860;28;23590;-66
2022/06/29 00:48:43;;;;;;;723.08;682.75;;;;;;;24.82;47.24;101407.59;691131;28;22385;-67
2022/06/29 00:49:04;;;;;;;743.67;701.53;;;;;;;24.85;47.00;101396.03;689356;28;69432;-67
2022/06/29 00:49:27;;;;;;;810.78;764.05;;;;;;;24.86;46.94;101405.13;690504;28;45246;-67
2022/06/29 00:49:49;;;;;;;735.80;695.03;;;;;;;24.88;46.52;101400.22;689039;28;44386;-67
2022/06/29 00:50:10;;;;;;;716.80;677.83;;;;;;;24.84;46.77;101402.63;690729;28;44434;-66
2022/06/29 00:50:38;;;;;;;731.10;691.15;;;;;;;24.83;46.79;101410.09;690715;28;37888;-67
2022/06/29 00:51:01;;;;;;;691.20;654.33;;;;;;;24.83;47.22;101403.75;688548;28;92377;-67
2022/06/29 00:51:24;;;;;;;723.85;685.03;;;;;;;24.83;46.70;101401.81;690147;28;70262;-66
2022/06/29 00:51:47;;;;;;;748.10;707.17;;;;;;;24.83;46.94;101400.97;690691;28;45261;-66
2022/06/29 00:52:10;;;;;;;677.67;642.05;;;;;;;24.81;46.78;101398.47;688808;28;91941;-66
2022/06/29 00:52:33;;;;;;;657.92;623.58;;;;;;;24.79;46.98;101403.41;690026;28;67471;-66
2022/06/29 00:53:01;;;;;;;690.47;653.83;;;;;;;24.81;46.63;101400.38;690892;28;45073;-66
2022/06/29 00:53:23;;;;;;;635.28;602.55;;;;;;;24.78;46.66;101401.75;686890;28;138347;-67
2022/06/29 00:53:45;;;;;;;653.97;619.88;;;;;;;24.73;47.18;101392.53;690839;28;46328;-66
2022/06/29 00:54:08;;;;;;;774.72;731.45;;;;;;;24.74;47.46;101397.81;689384;28;69265;-66
2022/06/29 00:54:34;;;;;;;753.30;711.67;;;;;;;24.74;47.39;101396.97;690004;28;69407;-66
2022/06/29 00:54:57;;;;;;;832.90;785.65;;;;;;;24.74;46.75;101397.81;687597;28;115310;-66
2022/06/29 00:55:19;;;;;;;872.80;822.85;;;;;;;24.76;46.96;101392.03;689089;28;69439;-66
2022/06/29 00:55:41;;;;;;;865.47;815.85;;;;;;;24.72;46.95;101388.97;690520;28;46326;-66
2022/06/29 00:56:07;;;;;;;866.67;817.05;;;;;;;24.69;47.15;101385.88;689749;28;69449;-65
2022/06/29 00:56:31;;;;;;;885.50;834.75;;;;;;;24.71;47.36;101392.81;687607;28;137916;-66
2022/06/29 00:56:52;;;;;;;845.35;797.00;;;;;;;24.70;47.13;101391.13;688213;28;92289;-66
2022/06/29 00:57:16;;;;;;;833.40;785.50;;;;;;;24.67;46.92;101388.91;690788;28;21534;-65
2022/06/29 00:57:38;;;;;;;744.92;703.08;;;;;;;24.64;47.26;101386.66;688926;28;90732;-66
2022/06/29 00:58:05;;;;;;;778.70;734.47;;;;;;;24.66;47.01;101389.97;690563;28;46274;-65
2022/06/29 00:58:27;;;;;;;831.13;783.38;;;;;;;24.66;47.02;101383.63;687381;28;138055;-66
2022/06/29 00:58:49;;;;;;;768.17;724.58;;;;;;;24.65;47.40;101382.78;690362;28;45086;-66
2022/06/29 00:59:13;;;;;;;749.80;707.53;;;;;;;24.66;47.22;101384.47;690104;28;44345;-67
2022/06/29 00:59:45;;;;;;;766.15;722.70;;;;;;;24.68;47.37;101390.53;688952;28;92174;-66
2022/06/29 01:00:08;;;;;;;784.15;739.38;;;;;;;24.68;47.31;101387.78;685887;28;156538;-66
2022/06/29 01:00:30;;;;;;;792.17;746.72;;;;;;;24.69;47.36;101386.69;690373;28;46221;-66
2022/06/29 01:00:52;;;;;;;816.60;769.45;;;;;;;24.69;47.31;101392.22;689786;28;66806;-67
2022/06/29 01:01:15;;;;;;;822.15;775.25;;;;;;;24.71;47.08;101395.56;691395;28;23323;-66
2022/06/29 01:01:36;;;;;;;805.15;759.10;;;;;;;24.67;47.29;101394.41;690044;28;68372;-66
2022/06/29 01:01:57;;;;;;;801.70;755.05;;;;;;;24.64;47.48;101395.75;689505;28;44424;-66
2022/06/29 01:02:21;;;;;;;876.22;825.40;;;;;;;24.62;47.45;101405.38;691037;28;22416;-66
2022/06/29 01:02:42;;;;;;;651.78;615.03;;;;;;;24.66;47.36;101400.19;689673;28;69541;-65
2022/06/29 01:03:03;;;;;;;412.70;391.50;;;;;;;24.67;47.17;101399.94;691386;28;21478;-66
2022/06/29 01:03:26;;;;;;;773.63;729.63;;;;;;;24.66;47.11;101397.44;690351;28;45231;-66
2022/06/29 01:03:47;;;;;;;945.45;890.00;;;;;;;24.61;47.31;101400.97;690217;28;69410;-65
2022/06/29 01:04:09;;;;;;;608.08;574.70;;;;;;;24.62;47.35;101400.72;691364;28;22367;-65
2022/06/29 01:04:30;;;;;;;584.60;552.83;;;;;;;24.60;47.54;101402.88;691255;28;23488;-66
2022/06/29 01:04:52;;;;;;;873.25;820.92;;;;;;;24.58;47.65;101402.31;690584;28;22529;-67
2022/06/29 01:05:14;;;;;;;474.20;447.83;;;;;;;24.51;47.31;101392.50;689382;28;69496;-67
2022/06/29 01:05:35;;;;;;;300.75;284.75;;;;;;;24.54;47.50;101395.56;690616;28;23485;-66
2022/06/29 01:05:57;;;;;;;723.78;679.20;;;;;;;24.56;47.29;101395.31;691051;28;29491;-66
2022/06/29 01:06:18;;;;;;;518.83;486.67;;;;;;;24.59;47.49;101400.38;691392;28;23475;-66
2022/06/29 01:06:39;;;;;;;78.70;74.60;;;;;;;24.60;47.25;101396.53;690999;28;23458;-66
2022/06/29 01:07:02;;;;;;;91.38;86.00;;;;;;;24.57;47.42;101394.28;690635;28;22402;-66
2022/06/29 01:07:24;;;;;;;5.82;5.63;;;;;;;24.61;47.15;101395.44;689478;28;69827;-66
2022/06/29 01:07:46;;;;;;;12.73;12.25;;;;;;;24.58;46.89;101391.25;690589;28;43666;-67
2022/06/29 01:08:08;;;;;;;23.30;22.38;;;;;;;24.60;47.44;101396.53;691425;28;22424;-66
2022/06/29 01:08:29;;;;;;;102.43;97.13;;;;;;;24.59;47.32;101392.94;689081;28;69326;-67
2022/06/29 01:08:51;;;;;;;765.97;717.72;;;;;;;24.58;47.32;101395.94;694362;28;24622;-66
2022/06/29 01:09:12;;;;;;;554.78;520.35;;;;;;;24.58;47.15;101396.78;693649;28;23426;-66
2022/06/29 01:09:33;;;;;;;174.77;164.65;;;;;;;24.59;47.17;101390.19;693121;28;45249;-66
2022/06/29 01:09:56;;;;;;;2.40;2.35;;;;;;;24.61;47.34;101390.75;692927;28;22576;-67
2022/06/29 01:10:17;;;;;;;1.08;1.08;;;;;;;24.60;47.27;101393.75;691890;28;69569;-67
2022/06/29 01:10:39;;;;;;;2.45;2.42;;;;;;;24.58;47.15;101390.44;693327;28;22409;-67
2022/06/29 01:11:00;;;;;;;7.65;7.45;;;;;;;24.55;47.40;101396.44;691481;28;22366;-67
2022/06/29 01:11:22;;;;;;;7.13;6.93;;;;;;;24.56;47.31;101396.19;691239;28;22408;-67
2022/06/29 01:11:44;;;;;;;6.97;6.78;;;;;;;24.55;47.36;101393.66;690205;28;45255;-67
2022/06/29 01:12:06;;;;;;;9.15;8.85;;;;;;;24.54;47.64;101398.34;691492;28;70149;-67
2022/06/29 01:12:28;;;;;;;9.73;9.40;;;;;;;24.55;47.56;101396.44;692721;28;44178;-66
2022/06/29 01:12:50;;;;;;;10.20;9.80;;;;;;;24.57;47.62;101395.09;693770;28;22399;-67
2022/06/29 01:13:11;;;;;;;7.72;7.43;;;;;;;24.60;47.39;101400.09;692854;28;44403;-67
2022/06/29 01:13:32;;;;;;;5.70;5.50;;;;;;;24.61;47.31;101400.97;693476;28;21531;-66
2022/06/29 01:13:54;;;;;;;5.28;5.15;;;;;;;24.56;47.46;101398.94;692616;28;46155;-66
2022/06/29 01:14:15;;;;;;;4.00;3.90;;;;;;;24.54;47.57;101400.28;691125;28;21332;-66
2022/06/29 01:14:37;;;;;;;4.90;4.70;;;;;;;24.51;47.37;101400.78;691819;28;23462;-66
2022/06/29 01:14:58;;;;;;;5.90;5.70;;;;;;;24.51;47.80;101396.09;691627;28;66344;-66
2022/06/29 01:15:20;;;;;;;4.45;4.32;;;;;;;24.55;47.56;101393.66;692717;28;46339;-66
2022/06/29 01:15:41;;;;;;;6.60;6.30;;;;;;;24.53;47.35;101398.59;693367;28;46187;-66
2022/06/29 01:16:03;;;;;;;10.48;10.07;;;;;;;24.52;47.45;101391.41;693139;28;22150;-66
2022/06/29 01:16:26;;;;;;;14.00;13.50;;;;;;;24.51;47.64;101387.78;692895;28;45261;-66
2022/06/29 01:16:47;;;;;;;15.65;15.05;;;;;;;24.49;47.64;101392.75;693233;28;46381;-66
2022/06/29 01:17:08;;;;;;;16.48;15.82;;;;;;;24.47;47.35;101389.41;692364;28;44397;-66
2022/06/29 01:17:30;;;;;;;18.30;17.55;;;;;;;24.47;47.89;101389.41;696411;28;21247;-66
2022/06/29 01:17:51;;;;;;;8.70;8.40;;;;;;;24.50;47.53;101390.81;696047;28;45264;-65
2022/06/29 01:18:13;;;;;;;22.50;21.58;;;;;;;24.51;47.45;101385.03;695840;28;22413;-66
2022/06/29 01:18:34;;;;;;;27.58;26.40;;;;;;;24.50;47.51;101386.16;696308;28;22238;-66
2022/06/29 01:18:55;;;;;;;22.65;21.75;;;;;;;24.52;47.41;101385.91;696538;28;22254;-65
2022/06/29 01:19:17;;;;;;;28.38;27.15;;;;;;;24.45;47.50;101389.66;694978;28;44333;-66
2022/06/29 01:19:39;;;;;;;30.23;28.92;;;;;;;24.49;47.53;101387.22;692374;28;44178;-65
2022/06/29 01:20:00;;;;;;;31.35;30.05;;;;;;;24.47;47.65;101379.19;693750;28;22468;-65
2022/06/29 01:20:21;;;;;;;33.20;31.67;;;;;;;24.44;47.59;101389.94;692653;28;46284;-66
2022/06/29 01:20:43;;;;;;;15.55;14.93;;;;;;;24.41;47.62;101396.78;693051;28;46602;-66
2022/06/29 01:21:05;;;;;;;12.32;11.85;;;;;;;24.41;47.54;101385.75;692615;28;45245;-67
2022/06/29 01:21:28;;;;;;;10.05;9.68;;;;;;;24.44;47.36;101387.16;693566;28;22417;-67
2022/06/29 01:21:51;;;;;;;14.18;13.68;;;;;;;24.46;47.55;101391.31;692042;28;70343;-66
2022/06/29 01:22:14;;;;;;;7.00;6.80;;;;;;;24.46;47.65;101387.72;692203;28;68332;-66
2022/06/29 01:22:36;;;;;;;6.07;5.90;;;;;;;24.46;47.76;101387.72;692298;28;69433;-66
2022/06/29 01:22:58;;;;;;;7.28;7.00;;;;;;;24.48;47.65;101393.81;692985;28;46306;-65
2022/06/29 01:23:19;;;;;;;11.05;10.65;;;;;;;24.47;47.66;101393.00;693261;28;45310;-67
2022/06/29 01:23:40;;;;;;;12.45;12.00;;;;;;;24.47;47.46;101389.41;690486;28;23529;-66
2022/06/29 01:24:02;;;;;;;12.77;12.32;;;;;;;24.49;47.46;101397.44;691160;28;22462;-66
2022/06/29 01:24:24;;;;;;;12.90;12.45;;;;;;;24.48;47.29;101385.53;690029;28;46314;-66
2022/06/29 01:24:46;;;;;;;20.53;19.73;;;;;;;24.43;47.32;101377.19;689782;28;44417;-67
2022/06/29 01:25:09;;;;;;;38.83;37.13;;;;;;;24.41;47.77;101390.44;689818;28;45333;-66
2022/06/29 01:25:30;;;;;;;58.92;56.25;;;;;;;24.34;47.39;101392.53;689429;28;90755;-66
2022/06/29 01:25:51;;;;;;;20.88;20.02;;;;;;;24.37;47.69;101392.84;694200;28;23492;-66
2022/06/29 01:26:13;;;;;;;13.52;13.05;;;;;;;24.34;47.93;101387.88;693988;28;22431;-66
2022/06/29 01:26:34;;;;;;;87.35;83.25;;;;;;;24.38;47.84;101394.53;694458;28;2531;-66
2022/06/29 01:26:57;;;;;;;97.88;93.13;;;;;;;24.41;47.72;101395.94;694569;28;1627;-66
2022/06/29 01:27:19;;;;;;;89.13;84.85;;;;;;;24.41;47.52;101390.44;692887;28;44441;-66
2022/06/29 01:27:41;;;;;;;58.65;55.92;;;;;;;24.40;47.71;101386.81;691950;28;69467;-66
2022/06/29 01:28:03;;;;;;;57.10;54.47;;;;;;;24.40;47.52;101391.50;693030;28;45272;-66
2022/06/29 01:28:26;;;;;;;70.07;66.80;;;;;;;24.39;47.63;101390.69;693017;28;46307;-66
2022/06/29 01:28:47;;;;;;;32.53;31.15;;;;;;;24.34;47.80;101384.25;693475;28;46678;-66
2022/06/29 01:29:09;;;;;;;24.50;23.50;;;;;;;24.29;47.89;101390.53;694095;28;23464;-66
2022/06/29 01:29:31;;;;;;;16.35;15.70;;;;;;;24.27;48.10;101399.06;691988;28;47628;-66
2022/06/29 01:29:53;;;;;;;18.35;17.63;;;;;;;24.26;47.71;101391.88;693895;28;4517;-66
2022/06/29 01:30:14;;;;;;;18.52;17.83;;;;;;;24.26;48.11;101388.28;692749;28;46317;-66
2022/06/29 01:30:36;;;;;;;25.40;24.33;;;;;;;24.23;47.77;101394.28;693603;28;21363;-66
2022/06/29 01:30:57;;;;;;;16.70;16.10;;;;;;;24.22;47.78;101389.88;694360;28;46337;-66
2022/06/29 01:31:20;;;;;;;15.30;14.75;;;;;;;24.22;48.01;101393.47;694171;28;21490;-66
2022/06/29 01:31:41;;;;;;;6.85;6.63;;;;;;;24.26;47.87;101396.56;692537;28;69349;-66
2022/06/29 01:32:03;;;;;;;5.20;5.00;;;;;;;24.24;47.65;101394.03;693530;28;21526;-67
2022/06/29 01:32:24;;;;;;;9.43;9.02;;;;;;;24.25;48.03;101398.47;693033;28;44397;-67
2022/06/29 01:32:47;;;;;;;17.58;16.90;;;;;;;24.21;48.00;101393.72;693713;28;22440;-67
2022/06/29 01:33:08;;;;;;;19.05;18.33;;;;;;;24.23;47.91;101394.28;693392;28;46321;-67
2022/06/29 01:33:29;;;;;;;8.82;8.52;;;;;;;24.26;48.23;101394.66;693734;28;23458;-67
2022/06/29 01:33:50;;;;;;;10.93;10.52;;;;;;;24.29;48.00;101399.66;693827;28;46301;-67
2022/06/29 01:34:12;;;;;;;12.80;12.35;;;;;;;24.29;47.72;101402.41;693984;28;23437;-68
2022/06/29 01:34:34;;;;;;;23.13;22.23;;;;;;;24.26;48.28;101397.41;693506;28;44396;-68
2022/06/29 01:35:00;;;;;;;21.95;21.00;;;;;;;24.24;48.07;101398.72;658520;28;45663;-68
2022/06/29 01:35:28;;;;;;;24.38;23.33;;;;;;;24.24;48.15;101393.22;691770;28;102566;-68
2022/06/29 01:35:50;;;;;;;17.52;16.73;;;;;;;24.25;47.88;101398.47;690907;28;137950;-68
2022/06/29 01:36:12;;;;;;;12.45;11.95;;;;;;;24.28;47.87;101394.41;693923;28;46269;-68
2022/06/29 01:36:33;;;;;;;19.80;19.00;;;;;;;24.28;48.16;101397.16;694240;28;46386;-68
2022/06/29 01:36:54;;;;;;;27.92;26.67;;;;;;;24.26;47.93;101394.66;694244;28;23748;-68
2022/06/29 01:37:18;;;;;;;24.75;23.67;;;;;;;24.27;48.13;101399.06;694233;28;21544;-68
2022/06/29 01:37:40;;;;;;;28.92;27.70;;;;;;;24.28;48.11;101392.47;691003;28;90861;-68
2022/06/29 01:38:01;;;;;;;32.25;30.83;;;;;;;24.27;48.32;101393.53;693352;28;45252;-68
2022/06/29 01:38:22;;;;;;;26.35;25.20;;;;;;;24.29;47.84;101390.53;693744;28;23603;-67
2022/06/29 01:38:44;;;;;;;22.35;21.45;;;;;;;24.25;48.03;101392.13;693268;28;23484;-67
2022/06/29 01:39:06;;;;;;;11.45;11.05;;;;;;;24.25;48.15;101392.97;692686;28;44398;-68
2022/06/29 01:39:28;;;;;;;16.55;15.93;;;;;;;24.24;47.80;101391.28;692719;28;44316;-68
2022/06/29 01:39:49;;;;;;;16.85;16.23;;;;;;;24.24;48.11;101390.44;691187;28;46369;-68
2022/06/29 01:40:12;;;;;;;11.98;11.57;;;;;;;24.26;47.90;101386.38;691529;28;22381;-68